Time;durP1;ratioP1;P1;durP2;ratioP2;P2;SDS_P1;SDS_P2;PMS_P1;PMS_P2;Temp;Humidity;BMP_temperature;BMP_pressure;BME280_temperature;BME280_humidity;BME280_pressure;Samples;Min_cycle;Max_cycle;Signal;HPM_P1;HPM_P2
2022/07/14 00:01:44;;;;;;;2.55;1.80;;;21.20;99.90;;;;;;5066419;28;20668;-79
2022/07/14 00:04:09;;;;;;;1.90;1.77;;;21.10;99.90;;;;;;5048997;28;20177;-79
2022/07/14 00:06:36;;;;;;;1.92;1.83;;;21.00;99.90;;;;;;5065047;28;20227;-79
2022/07/14 00:09:02;;;;;;;1.80;1.70;;;20.80;99.90;;;;;;5065523;28;20174;-79
2022/07/14 00:11:28;;;;;;;3.10;1.92;;;20.80;99.90;;;;;;5047645;28;20297;-79
2022/07/14 00:13:54;;;;;;;2.75;1.95;;;20.80;99.90;;;;;;5047876;28;20181;-79
2022/07/14 00:16:19;;;;;;;2.00;1.80;;;20.70;99.90;;;;;;5073795;28;20198;-79
2022/07/14 00:18:45;;;;;;;3.38;1.92;;;20.80;99.90;;;;;;5069016;28;20169;-79
2022/07/14 00:21:12;;;;;;;2.35;2.15;;;20.80;99.90;;;;;;5051500;28;20212;-79
2022/07/14 00:23:38;;;;;;;2.67;2.00;;;20.80;99.90;;;;;;5068735;28;20222;-79
2022/07/14 00:26:04;;;;;;;2.72;2.05;;;20.70;99.90;;;;;;5067086;28;20181;-79
2022/07/14 00:28:29;;;;;;;2.63;2.05;;;20.70;99.90;;;;;;5050480;28;20177;-79
2022/07/14 00:30:55;;;;;;;2.35;2.15;;;20.70;99.90;;;;;;5067093;28;20200;-79
2022/07/14 00:33:21;;;;;;;2.00;1.90;;;20.60;99.90;;;;;;5066971;28;20173;-79
2022/07/14 00:35:46;;;;;;;2.08;1.90;;;20.60;99.90;;;;;;5051071;28;20184;-79
2022/07/14 00:38:12;;;;;;;2.85;2.00;;;20.60;99.90;;;;;;5067854;28;20212;-79
2022/07/14 00:40:38;;;;;;;2.75;1.90;;;20.60;99.90;;;;;;5050914;28;20193;-79
2022/07/14 00:43:04;;;;;;;2.10;2.00;;;20.50;99.90;;;;;;5067258;28;20177;-79
2022/07/14 00:45:29;;;;;;;2.35;2.03;;;20.50;99.90;;;;;;5083713;28;20176;-79
2022/07/14 00:47:55;;;;;;;1.92;1.80;;;20.50;99.90;;;;;;5083233;28;20169;-79
2022/07/14 00:50:21;;;;;;;2.45;2.25;;;20.60;99.90;;;;;;5083679;28;20183;-79
2022/07/14 00:52:48;;;;;;;117.80;25.25;;;20.60;99.90;;;;;;5083735;28;20181;-79
2022/07/14 00:55:15;;;;;;;299.05;38.38;;;20.70;99.90;;;;;;5066951;28;20184;-79
2022/07/14 00:57:41;;;;;;;2.05;1.85;;;20.70;99.90;;;;;;5082736;28;20204;-79
2022/07/14 01:00:10;;;;;;;2.00;1.90;;;20.70;99.90;;;;;;5083449;28;20176;-79
2022/07/14 01:02:36;;;;;;;2.20;2.00;;;20.70;99.90;;;;;;5083291;28;20177;-79
2022/07/14 01:05:03;;;;;;;2.30;2.10;;;20.70;99.90;;;;;;5067039;28;20200;-79
2022/07/14 01:07:29;;;;;;;2.30;2.10;;;20.50;99.90;;;;;;5083598;28;20181;-79
2022/07/14 01:09:55;;;;;;;2.45;2.08;;;20.40;99.90;;;;;;5084418;28;20165;-79
2022/07/14 01:12:20;;;;;;;2.38;2.00;;;20.30;99.90;;;;;;5066201;28;20234;-79
2022/07/14 01:14:46;;;;;;;2.40;1.92;;;20.30;99.90;;;;;;5083490;28;20173;-79
2022/07/14 01:17:12;;;;;;;2.47;1.98;;;20.20;99.90;;;;;;5046679;28;20216;-79
2022/07/14 01:19:38;;;;;;;2.97;2.03;;;20.30;99.90;;;;;;5063069;28;20229;-79
2022/07/14 01:22:05;;;;;;;2.10;1.77;;;20.30;99.90;;;;;;5061038;28;20209;-79
2022/07/14 01:24:31;;;;;;;2.95;2.00;;;20.20;99.90;;;;;;5062248;28;20225;-79
2022/07/14 01:26:57;;;;;;;113.55;15.43;;;20.20;99.90;;;;;;5061033;28;20541;-79
2022/07/14 01:29:25;;;;;;;2.22;2.03;;;20.20;99.90;;;;;;5045475;28;20245;-79
2022/07/14 01:31:50;;;;;;;71.90;7.15;;;20.20;99.90;;;;;;5061908;28;20687;-79
2022/07/14 01:34:16;;;;;;;1.83;1.60;;;20.20;99.90;;;;;;5045367;28;20182;-79
2022/07/14 01:36:42;;;;;;;247.55;32.05;;;20.20;99.90;;;;;;5061694;28;20204;-79
2022/07/14 01:39:08;;;;;;;2.13;2.00;;;20.30;99.90;;;;;;5044830;28;20174;-79
2022/07/14 01:41:34;;;;;;;3.47;1.98;;;20.20;99.90;;;;;;5028540;28;20198;-79
2022/07/14 01:44:00;;;;;;;2.10;1.48;;;20.30;99.90;;;;;;5061488;28;20174;-79
2022/07/14 01:46:26;;;;;;;1.77;1.63;;;20.30;99.90;;;;;;5060991;28;20174;-79
2022/07/14 01:48:52;;;;;;;3.80;1.60;;;20.30;99.90;;;;;;5045138;28;20182;-79
2022/07/14 01:51:17;;;;;;;1.58;1.48;;;20.10;99.90;;;;;;5045362;28;20204;-79
2022/07/14 01:53:43;;;;;;;2.67;1.95;;;20.10;99.90;;;;;;5045497;28;20178;-79
2022/07/14 01:56:10;;;;;;;7.85;2.50;;;20.20;99.90;;;;;;5045759;28;20178;-79
2022/07/14 01:58:36;;;;;;;2.20;2.00;;;20.20;99.90;;;;;;5062366;28;20275;-79
2022/07/14 02:03:46;;;;;;;2.75;1.58;;;20.30;99.90;;;;;;5061304;28;20208;-79
2022/07/14 02:06:12;;;;;;;294.55;24.10;;;20.30;99.90;;;;;;5062436;28;20178;-79
2022/07/14 02:08:38;;;;;;;3.33;2.13;;;20.10;99.90;;;;;;5028690;28;20180;-79
2022/07/14 02:13:48;;;;;;;2.72;2.10;;;20.20;99.90;;;;;;5047508;28;20203;-79
2022/07/14 02:16:13;;;;;;;178.13;22.25;;;20.20;99.90;;;;;;5028097;28;20267;-79
2022/07/14 02:18:39;;;;;;;1.70;1.60;;;20.20;99.90;;;;;;5063145;28;20173;-79
2022/07/14 02:22:49;;;;;;;1.55;1.45;;;20.20;99.90;;;;;;5073430;28;20538;-77
2022/07/14 02:25:15;;;;;;;1.70;1.58;;;20.10;99.90;;;;;;5055650;28;20185;-77
2022/07/14 02:27:41;;;;;;;1.58;1.40;;;20.10;99.90;;;;;;5072093;28;20165;-77
2022/07/14 02:30:07;;;;;;;1.65;1.55;;;20.00;99.90;;;;;;5072314;28;20196;-77
2022/07/14 02:32:33;;;;;;;2.60;1.77;;;20.00;99.90;;;;;;5038956;28;20184;-77
2022/07/14 02:34:58;;;;;;;1.70;1.60;;;20.00;99.90;;;;;;5055202;28;20165;-77
2022/07/14 02:37:24;;;;;;;1.70;1.60;;;19.90;99.90;;;;;;5073498;28;20228;-77
2022/07/14 02:39:50;;;;;;;1.52;1.40;;;19.90;99.90;;;;;;5072470;28;20292;-77
2022/07/14 02:42:16;;;;;;;1.52;1.40;;;19.90;99.90;;;;;;5054909;28;20247;-77
2022/07/14 02:44:41;;;;;;;1.58;1.42;;;19.90;99.90;;;;;;5038458;28;20181;-77
2022/07/14 02:47:07;;;;;;;1.85;1.70;;;19.90;99.90;;;;;;5071343;28;20249;-77
2022/07/14 02:49:33;;;;;;;2.03;1.67;;;19.80;99.90;;;;;;5038854;28;20169;-77
2022/07/14 02:51:58;;;;;;;2.13;1.77;;;19.70;99.90;;;;;;5037539;28;20633;-77
2022/07/14 02:54:24;;;;;;;1.60;1.50;;;19.70;99.90;;;;;;5054417;28;20184;-77
2022/07/14 02:56:49;;;;;;;1.80;1.60;;;19.70;99.90;;;;;;5071034;28;20173;-77
2022/07/14 02:59:15;;;;;;;2.38;1.98;;;19.70;99.90;;;;;;5038198;28;20264;-78
2022/07/14 03:01:41;;;;;;;2.03;1.85;;;19.70;99.90;;;;;;5054175;28;20220;-78
2022/07/14 03:04:07;;;;;;;1.80;1.60;;;19.80;99.90;;;;;;5037561;28;20173;-78
2022/07/14 03:06:32;;;;;;;1.60;1.50;;;19.90;99.90;;;;;;5070827;28;20295;-78
2022/07/14 03:08:58;;;;;;;1.60;1.50;;;19.80;99.90;;;;;;5070693;28;20213;-78
2022/07/14 03:11:24;;;;;;;2.13;1.70;;;19.70;99.90;;;;;;5053719;28;20220;-78
2022/07/14 03:13:49;;;;;;;1.95;1.50;;;19.70;99.90;;;;;;5037322;28;20211;-78
2022/07/14 03:16:15;;;;;;;2.17;1.63;;;19.50;99.90;;;;;;5033696;28;20190;-78
2022/07/14 03:18:41;;;;;;;2.05;1.85;;;19.50;99.90;;;;;;5034028;28;20185;-78
2022/07/14 03:21:12;;;;;;;2.95;2.08;;;19.40;99.90;;;;;;5066037;23;20216;-76
2022/07/14 03:23:38;;;;;;;2.72;1.83;;;19.40;99.90;;;;;;4994028;28;20289;-77
2022/07/14 03:26:04;;;;;;;2.10;1.90;;;19.30;99.90;;;;;;4994544;28;20200;-76
2022/07/14 03:28:30;;;;;;;1.85;1.75;;;19.40;99.90;;;;;;5010519;28;20594;-77
2022/07/14 03:30:56;;;;;;;1.60;1.48;;;19.40;99.90;;;;;;5010971;28;20175;-76
2022/07/14 03:33:23;;;;;;;2.75;2.00;;;19.50;99.90;;;;;;5002042;28;20175;-76
2022/07/14 03:35:50;;;;;;;1.73;1.63;;;19.50;99.90;;;;;;4965406;28;20273;-77
2022/07/14 03:38:16;;;;;;;2.95;1.80;;;19.60;99.90;;;;;;4981636;28;20187;-76
2022/07/14 03:40:41;;;;;;;2.47;1.80;;;19.60;99.90;;;;;;4967971;28;20199;-77
2022/07/14 03:43:07;;;;;;;2.88;1.92;;;19.60;99.90;;;;;;4961647;28;20226;-77
2022/07/14 03:45:33;;;;;;;2.35;2.15;;;19.60;99.90;;;;;;4962141;28;20604;-76
2022/07/14 03:47:58;;;;;;;2.65;1.95;;;19.60;99.90;;;;;;4961869;28;20180;-77
2022/07/14 03:50:24;;;;;;;4.40;2.13;;;19.50;99.90;;;;;;4977912;28;20168;-77
2022/07/14 03:52:50;;;;;;;3.50;2.10;;;19.50;99.90;;;;;;4977750;28;20242;-77
2022/07/14 03:55:16;;;;;;;4.75;2.15;;;19.50;99.90;;;;;;4977705;28;20669;-76
2022/07/14 03:57:42;;;;;;;1.88;1.67;;;19.50;99.90;;;;;;4961493;28;20192;-76
2022/07/14 04:00:08;;;;;;;2.22;1.88;;;19.50;99.90;;;;;;4961511;28;20184;-76
2022/07/14 04:02:34;;;;;;;183.05;98.32;;;19.50;99.90;;;;;;4961235;28;20223;-76
2022/07/14 04:04:59;;;;;;;111.65;13.18;;;19.50;99.90;;;;;;4995138;28;20175;-76
2022/07/14 04:07:25;;;;;;;2.65;1.55;;;19.40;99.90;;;;;;4994845;28;20215;-77
2022/07/14 04:09:51;;;;;;;4.47;2.15;;;19.20;99.90;;;;;;4961343;28;20186;-76
2022/07/14 04:12:16;;;;;;;1.95;1.60;;;19.30;99.90;;;;;;4945084;28;20229;-77
2022/07/14 04:14:42;;;;;;;2.75;2.00;;;19.30;99.90;;;;;;4977346;28;20646;-77
2022/07/14 04:17:08;;;;;;;2.50;1.80;;;19.10;99.90;;;;;;4945194;28;20175;-77
2022/07/14 04:19:34;;;;;;;1.90;1.80;;;19.00;99.90;;;;;;4993575;28;20186;-76
2022/07/14 04:21:59;;;;;;;2.17;1.60;;;18.90;99.90;;;;;;4960834;28;20633;-77
2022/07/14 04:24:25;;;;;;;2.20;1.80;;;19.00;99.90;;;;;;4993546;28;20183;-77
2022/07/14 04:26:51;;;;;;;2.30;2.10;;;18.80;99.90;;;;;;4993347;28;20214;-77
2022/07/14 04:29:17;;;;;;;2.92;2.28;;;18.70;99.90;;;;;;4993524;28;20180;-77
2022/07/14 04:31:43;;;;;;;2.00;1.80;;;18.70;99.90;;;;;;4976878;28;20780;-77
2022/07/14 04:34:08;;;;;;;1.77;1.63;;;18.70;99.90;;;;;;4993255;28;20614;-77
2022/07/14 04:36:34;;;;;;;2.67;2.00;;;18.80;99.90;;;;;;4977024;28;20188;-77
2022/07/14 04:39:00;;;;;;;2.92;2.00;;;18.80;99.90;;;;;;4993200;28;20266;-77
2022/07/14 04:41:26;;;;;;;4.10;2.00;;;18.70;99.90;;;;;;4960595;28;20303;-77
2022/07/14 04:43:52;;;;;;;2.23;2.03;;;18.60;99.90;;;;;;4992771;28;20203;-77
2022/07/14 04:46:18;;;;;;;2.67;2.17;;;18.60;99.90;;;;;;4992512;28;20242;-77
2022/07/14 04:54:12;;;;;;;3.03;2.45;;;18.80;99.90;;;;;;4993299;28;20183;-76
2022/07/14 04:56:37;;;;;;;5.30;2.63;;;19.00;99.90;;;;;;4962772;28;20183;-76
2022/07/14 04:59:03;;;;;;;2.10;1.73;;;19.20;99.90;;;;;;4984647;28;20554;-76
2022/07/14 05:01:28;;;;;;;177.60;21.10;;;19.20;99.90;;;;;;4976689;28;20354;-76
2022/07/14 05:03:54;;;;;;;2.10;1.90;;;19.40;99.90;;;;;;4964144;28;20175;-76
2022/07/14 05:06:20;;;;;;;41.35;14.23;;;19.60;99.90;;;;;;4980162;28;20269;-76
2022/07/14 05:08:46;;;;;;;3.40;2.80;;;19.80;99.90;;;;;;4980289;28;20276;-76
2022/07/14 05:11:11;;;;;;;1.97;1.70;;;19.90;99.90;;;;;;4980203;28;20202;-76
2022/07/14 05:13:38;;;;;;;2.00;1.80;;;20.00;99.90;;;;;;5013525;28;20175;-76
2022/07/14 05:16:04;;;;;;;3.95;2.47;;;20.00;99.90;;;;;;4979300;28;20180;-76
2022/07/14 05:18:29;;;;;;;2.65;2.33;;;19.90;99.90;;;;;;4976573;28;20222;-77
2022/07/14 05:20:55;;;;;;;2.25;1.98;;;20.00;99.90;;;;;;4960012;28;20199;-76
2022/07/14 05:23:20;;;;;;;5.15;2.13;;;20.00;99.90;;;;;;4960233;28;20694;-76
2022/07/14 05:25:46;;;;;;;2.25;1.98;;;19.80;99.90;;;;;;4960683;28;20234;-76
2022/07/14 05:28:12;;;;;;;2.75;2.20;;;19.70;99.90;;;;;;4960457;28;20218;-77
2022/07/14 05:30:37;;;;;;;32.40;6.95;;;19.80;99.90;;;;;;4960427;28;20180;-77
2022/07/14 05:33:03;;;;;;;5.07;2.22;;;19.70;99.90;;;;;;4944080;28;20238;-76
2022/07/14 05:35:29;;;;;;;5.05;2.15;;;19.80;99.90;;;;;;4960126;28;20176;-77
2022/07/14 05:37:54;;;;;;;2.60;2.40;;;19.90;99.90;;;;;;4944592;28;20271;-77
2022/07/14 05:40:20;;;;;;;12.70;3.22;;;19.80;99.90;;;;;;4960374;28;20266;-77
2022/07/14 05:42:45;;;;;;;2.53;2.33;;;19.70;99.90;;;;;;4959641;28;20215;-77
2022/07/14 05:45:11;;;;;;;6.28;3.42;;;19.80;99.90;;;;;;4960020;28;20554;-77
2022/07/14 05:47:38;;;;;;;3.75;3.30;;;19.90;99.90;;;;;;4960295;28;20190;-76
2022/07/14 05:50:04;;;;;;;39.08;4.95;;;20.00;99.90;;;;;;4960385;28;20176;-76
2022/07/14 05:52:30;;;;;;;2.83;2.53;;;20.10;99.90;;;;;;4975642;28;20206;-76
2022/07/14 05:55:00;;;;;;;2.75;2.40;;;20.20;99.90;;;;;;4960285;28;20184;-76
2022/07/14 05:57:26;;;;;;;2.85;2.40;;;20.20;99.90;;;;;;4975639;28;20171;-76
2022/07/14 05:59:51;;;;;;;3.10;2.50;;;20.20;99.90;;;;;;4975808;28;20203;-77
2022/07/14 06:02:17;;;;;;;2.35;2.10;;;20.20;99.90;;;;;;4959358;28;20302;-77
2022/07/14 06:04:43;;;;;;;14.50;12.57;;;20.10;99.90;;;;;;4991951;28;20648;-77
2022/07/14 06:07:09;;;;;;;3.00;2.67;;;20.00;99.90;;;;;;4976009;28;20204;-76
2022/07/14 06:09:36;;;;;;;2.35;2.15;;;19.80;99.90;;;;;;4992262;28;20179;-77
2022/07/14 06:12:09;;;;;;;2.50;2.30;;;19.80;99.90;;;;;;4991832;28;20287;-76
2022/07/14 06:14:36;;;;;;;2.88;2.35;;;19.80;99.90;;;;;;4993093;28;20164;-76
2022/07/14 06:17:01;;;;;;;28.92;4.10;;;19.90;99.90;;;;;;4992200;28;20175;-76
2022/07/14 06:19:27;;;;;;;5.38;3.00;;;19.90;99.90;;;;;;4959689;28;20186;-76
2022/07/14 06:21:53;;;;;;;3.40;2.58;;;20.10;99.90;;;;;;4991291;28;20219;-76
2022/07/14 06:24:18;;;;;;;4.30;3.50;;;20.70;99.90;;;;;;4991822;28;20184;-76
2022/07/14 06:26:44;;;;;;;4.50;3.88;;;20.80;99.90;;;;;;4991847;28;20179;-76
2022/07/14 06:29:17;;;;;;;4.15;3.63;;;20.50;99.90;;;;;;4991607;28;20269;-76
2022/07/14 06:31:42;;;;;;;3.75;3.20;;;20.40;99.90;;;;;;4959388;28;20203;-76
2022/07/14 06:34:08;;;;;;;3.90;3.60;;;20.60;99.90;;;;;;4959695;28;20196;-76
2022/07/14 06:36:33;;;;;;;3.40;3.10;;;20.90;99.90;;;;;;4959603;28;20175;-76
2022/07/14 06:38:59;;;;;;;4.72;4.15;;;21.10;99.90;;;;;;4959323;28;20262;-76
2022/07/14 06:41:25;;;;;;;3.80;3.50;;;21.10;99.90;;;;;;4975259;28;20238;-76
2022/07/14 06:44:16;;;;;;;4.78;3.72;;;20.90;99.90;;;;;;4990888;28;20172;-76
2022/07/14 06:46:42;;;;;;;3.30;2.67;;;20.70;99.90;;;;;;4991657;28;20212;-76
2022/07/14 06:49:07;;;;;;;3.58;3.22;;;21.00;99.90;;;;;;4959324;28;20214;-76
2022/07/14 06:51:33;;;;;;;3.40;3.10;;;21.30;99.90;;;;;;4975366;28;20694;-76
2022/07/14 06:53:58;;;;;;;3.40;3.10;;;21.70;99.90;;;;;;4975283;28;20187;-76
2022/07/14 06:56:24;;;;;;;3.40;3.10;;;21.70;99.90;;;;;;4991456;28;20175;-76
2022/07/14 06:58:49;;;;;;;4.40;3.28;;;21.80;99.90;;;;;;4991648;28;20192;-76
2022/07/14 07:01:15;;;;;;;4.15;3.72;;;22.00;99.90;;;;;;4975211;28;20266;-76
2022/07/14 07:03:41;;;;;;;3.70;3.40;;;21.90;99.90;;;;;;4991393;28;20642;-76
2022/07/14 07:08:51;;;;;;;4.10;3.75;;;21.30;99.90;;;;;;4995248;28;20167;-76
2022/07/14 07:11:17;;;;;;;4.30;3.90;;;21.30;99.90;;;;;;4994909;28;20273;-76
2022/07/14 07:13:43;;;;;;;3.85;3.55;;;21.20;99.90;;;;;;4994795;28;20654;-76
2022/07/14 07:16:09;;;;;;;3.45;2.90;;;21.00;99.90;;;;;;4995091;28;20188;-76
2022/07/14 07:18:35;;;;;;;3.47;3.17;;;21.10;99.90;;;;;;4994898;28;20230;-76
2022/07/14 07:21:01;;;;;;;4.47;3.97;;;21.30;99.90;;;;;;4994561;28;20253;-76
2022/07/14 07:23:27;;;;;;;4.35;3.95;;;21.40;99.90;;;;;;4995938;28;20176;-76
2022/07/14 07:25:53;;;;;;;4.10;3.80;;;21.30;99.90;;;;;;4962875;28;20176;-76
2022/07/14 07:28:19;;;;;;;4.45;3.90;;;21.30;99.90;;;;;;4962164;28;20187;-76
2022/07/14 07:30:45;;;;;;;4.53;3.67;;;21.20;99.90;;;;;;4978434;28;20180;-76
2022/07/14 07:33:10;;;;;;;4.72;3.90;;;21.00;99.90;;;;;;4978270;28;20182;-76
2022/07/14 07:35:36;;;;;;;3.38;3.08;;;20.90;99.90;;;;;;4962549;28;20310;-76
2022/07/14 07:38:02;;;;;;;4.45;4.00;;;20.80;99.90;;;;;;4994601;28;20182;-76
2022/07/14 07:40:27;;;;;;;4.20;3.53;;;20.90;99.90;;;;;;4994383;28;20172;-76
2022/07/14 07:42:59;;;;;;;4.07;3.70;;;20.90;99.90;;;;;;4961531;28;20295;-76
2022/07/14 07:45:25;;;;;;;3.00;2.70;;;20.80;99.90;;;;;;4962369;28;20172;-76
2022/07/14 07:47:51;;;;;;;5.25;3.13;;;20.80;99.90;;;;;;4962513;28;20195;-76
2022/07/14 07:50:17;;;;;;;3.40;3.10;;;21.00;99.90;;;;;;4978303;28;20311;-76
2022/07/14 07:52:42;;;;;;;4.03;3.28;;;21.20;99.90;;;;;;5011950;28;20289;-76
2022/07/14 07:55:09;;;;;;;6.38;3.30;;;21.30;99.90;;;;;;4965169;28;20475;-76
2022/07/14 07:57:36;;;;;;;5.30;3.85;;;21.50;99.90;;;;;;4997573;28;20193;-76
2022/07/14 08:00:03;;;;;;;3.63;3.17;;;21.50;99.90;;;;;;4981308;28;20194;-76
2022/07/14 08:02:29;;;;;;;3.95;3.53;;;21.60;99.90;;;;;;4996993;28;20217;-77
2022/07/14 08:04:55;;;;;;;3.53;3.22;;;21.70;99.90;;;;;;4981064;28;20179;-76
2022/07/14 08:07:21;;;;;;;4.85;3.90;;;21.70;99.90;;;;;;4965337;28;20179;-76
2022/07/14 08:09:46;;;;;;;3.65;3.35;;;21.70;99.90;;;;;;4997432;28;20167;-76
2022/07/14 08:12:12;;;;;;;3.70;3.30;;;21.70;99.90;;;;;;4980791;28;20222;-76
2022/07/14 08:14:51;;;;;;;3.63;3.20;;;21.70;99.90;;;;;;4964729;28;20708;-76
2022/07/14 08:17:18;;;;;;;3.63;3.08;;;21.80;99.90;;;;;;4968978;28;20636;-76
2022/07/14 08:19:44;;;;;;;3.15;2.90;;;22.00;99.90;;;;;;4997442;28;20184;-76
2022/07/14 08:22:11;;;;;;;3.03;2.72;;;22.00;99.90;;;;;;4980416;28;20613;-76
2022/07/14 08:24:36;;;;;;;4.20;3.42;;;22.20;99.90;;;;;;4981040;28;20646;-79
2022/07/14 08:27:02;;;;;;;3.03;2.78;;;22.20;99.90;;;;;;4965109;28;20178;-76
2022/07/14 08:29:28;;;;;;;4.65;3.47;;;22.20;99.90;;;;;;4997106;28;20175;-76
2022/07/14 08:31:53;;;;;;;4.35;3.60;;;22.20;99.90;;;;;;4980647;28;20199;-76
2022/07/14 08:34:19;;;;;;;4.03;3.63;;;22.20;99.90;;;;;;4964413;28;20183;-76
2022/07/14 08:36:45;;;;;;;8.20;3.60;;;22.30;99.90;;;;;;4980648;28;20175;-76
2022/07/14 08:39:10;;;;;;;5.40;3.42;;;22.30;99.90;;;;;;4981040;28;20190;-76
2022/07/14 08:41:37;;;;;;;4.07;3.58;;;22.40;99.90;;;;;;4980208;28;20631;-76
2022/07/14 08:44:28;;;;;;;3.50;3.20;;;22.40;99.90;;;;;;4980490;28;20175;-76
2022/07/14 08:46:55;;;;;;;4.25;3.83;;;22.50;99.90;;;;;;4996691;28;20163;-76
2022/07/14 08:49:21;;;;;;;3.65;3.35;;;22.60;99.90;;;;;;4980319;28;20179;-76
2022/07/14 08:51:50;;;;;;;4.43;3.15;;;22.50;99.90;;;;;;4953553;28;20222;-76
2022/07/14 08:54:16;;;;;;;4.22;3.20;;;22.50;99.90;;;;;;4977037;28;20259;-76
2022/07/14 08:56:43;;;;;;;3.15;2.85;;;22.50;99.90;;;;;;4977016;28;20180;-76
2022/07/14 08:59:09;;;;;;;3.15;2.85;;;22.60;99.90;;;;;;4961244;28;20184;-76
2022/07/14 09:01:36;;;;;;;3.67;3.38;;;22.60;99.90;;;;;;4976930;28;20272;-76
2022/07/14 09:04:02;;;;;;;3.75;3.33;;;22.70;99.90;;;;;;4960629;28;20183;-76
2022/07/14 09:06:53;;;;;;;4.03;3.03;;;22.70;99.90;;;;;;4976943;28;20226;-76
2022/07/14 09:09:23;;;;;;;3.55;2.72;;;22.50;99.90;;;;;;4967668;28;20575;-76
2022/07/14 09:12:09;;;;;;;2.60;2.40;;;22.60;99.90;;;;;;4976373;28;20416;-76
2022/07/14 09:17:27;;;;;;;2.60;2.40;;;22.90;99.90;;;;;;4994146;28;20218;-76
2022/07/14 09:20:08;;;;;;;3.63;3.00;;;22.90;99.90;;;;;;4976535;28;20550;-76
2022/07/14 09:22:36;;;;;;;3.30;3.00;;;22.70;99.90;;;;;;5005349;23;20222;-82
2022/07/14 09:25:05;;;;;;;3.67;3.38;;;22.80;99.90;;;;;;4976237;28;20183;-81
2022/07/14 09:27:32;;;;;;;3.70;3.20;;;22.90;99.90;;;;;;5006766;28;20208;-82
2022/07/14 09:29:58;;;;;;;3.95;2.90;;;22.90;99.90;;;;;;5013336;28;20538;-82
2022/07/14 09:32:43;;;;;;;3.00;2.70;;;23.00;99.90;;;;;;4978110;28;20688;-81
2022/07/14 09:35:11;;;;;;;5.07;3.30;;;23.00;99.90;;;;;;4978426;28;20184;-81
2022/07/14 09:37:38;;;;;;;3.40;3.10;;;23.00;99.90;;;;;;4995576;28;20172;-81
2022/07/14 09:40:06;;;;;;;3.47;3.17;;;23.00;99.90;;;;;;4994955;28;20208;-81
2022/07/14 09:42:50;;;;;;;4.20;2.88;;;22.90;99.90;;;;;;4997979;28;20222;-82
2022/07/14 09:45:17;;;;;;;4.05;3.22;;;22.90;99.90;;;;;;4999033;28;20167;-82
2022/07/14 09:48:07;;;;;;;3.95;3.35;;;23.00;99.90;;;;;;4982223;28;20523;-81
2022/07/14 09:51:00;;;;;;;6.18;3.50;;;23.20;99.90;;;;;;5014807;28;20166;-82
2022/07/14 09:53:32;;;;;;;4.07;3.28;;;23.40;99.90;;;;;;5014960;28;20205;-81
2022/07/14 09:56:03;;;;;;;4.50;3.38;;;23.50;99.90;;;;;;4998691;28;20213;-82
2022/07/14 09:58:33;;;;;;;3.92;3.63;;;23.50;99.90;;;;;;5015644;28;20658;-82
2022/07/14 10:01:02;;;;;;;3.58;3.25;;;23.50;99.90;;;;;;5000037;28;20197;-81
2022/07/14 10:03:30;;;;;;;4.25;3.45;;;23.40;99.90;;;;;;4998366;28;20198;-81
2022/07/14 10:05:57;;;;;;;5.18;2.97;;;23.20;99.90;;;;;;5015313;28;20545;-82
2022/07/14 10:08:44;;;;;;;3.50;3.20;;;23.30;99.90;;;;;;4983388;28;20181;-81
2022/07/14 10:11:10;;;;;;;4.68;2.92;;;23.60;99.90;;;;;;5014867;28;20183;-82
2022/07/14 10:13:37;;;;;;;3.97;3.03;;;24.10;99.90;;;;;;4999412;28;20206;-82
2022/07/14 10:16:03;;;;;;;3.97;3.67;;;24.50;99.90;;;;;;5015918;28;20197;-81
2022/07/14 10:18:28;;;;;;;4.63;3.42;;;24.50;99.90;;;;;;4983236;28;20270;-82
2022/07/14 10:20:59;;;;;;;102.63;12.30;;;24.60;99.90;;;;;;4997886;28;20238;-81
2022/07/14 10:23:26;;;;;;;47.85;4.75;;;25.00;99.90;;;;;;4979635;28;20242;-81
2022/07/14 10:26:00;;;;;;;6.13;3.80;;;25.20;99.90;;;;;;4996951;28;20171;-81
2022/07/14 10:28:26;;;;;;;3.92;3.60;;;25.30;99.90;;;;;;4980627;28;20171;-82
2022/07/14 10:31:01;;;;;;;5.10;4.00;;;25.60;99.90;;;;;;4979486;28;20190;-82
2022/07/14 10:33:45;;;;;;;4.25;3.85;;;25.90;99.90;;;;;;4993415;28;20662;-82
2022/07/14 10:36:22;;;;;;;22.90;3.30;;;25.90;99.90;;;;;;4993471;28;20174;-82
2022/07/14 10:39:06;;;;;;;5.13;4.00;;;25.90;99.90;;;;;;4993872;28;20245;-82
2022/07/14 10:41:41;;;;;;;4.43;3.90;;;25.70;99.90;;;;;;4993227;28;20240;-82
2022/07/14 10:44:20;;;;;;;4.55;3.78;;;26.00;99.90;;;;;;4996757;28;20221;-82
2022/07/14 10:46:48;;;;;;;4.30;3.90;;;26.30;99.90;;;;;;4981659;28;20208;-82
2022/07/14 10:49:15;;;;;;;4.90;3.55;;;26.20;99.90;;;;;;4981477;28;20187;-81
2022/07/14 10:51:53;;;;;;;5.68;4.25;;;26.50;99.90;;;;;;4980815;28;20250;-82
2022/07/14 10:54:26;;;;;;;4.55;4.13;;;26.60;99.90;;;;;;4981008;28;20179;-81
2022/07/14 10:57:15;;;;;;;7.20;4.30;;;26.70;99.90;;;;;;4981477;28;20230;-82
2022/07/14 10:59:47;;;;;;;5.20;3.33;;;26.60;99.90;;;;;;4981613;28;20635;-82
2022/07/14 11:02:12;;;;;;;3.95;3.50;;;26.70;99.90;;;;;;4981507;28;20219;-82
2022/07/14 11:04:59;;;;;;;4.97;3.40;;;26.70;99.90;;;;;;4997188;28;20219;-81
2022/07/14 11:07:52;;;;;;;4.38;3.08;;;26.80;99.90;;;;;;4997470;28;20554;-81
2022/07/14 11:10:18;;;;;;;3.92;3.63;;;26.90;99.90;;;;;;4982410;28;20203;-81
2022/07/14 11:13:02;;;;;;;5.28;3.60;;;26.80;99.90;;;;;;4997453;28;20204;-81
2022/07/14 11:15:40;;;;;;;4.65;3.80;;;26.90;99.90;;;;;;4997564;28;20186;-81
2022/07/14 11:18:18;;;;;;;4.57;4.18;;;26.60;99.90;;;;;;4997256;28;20180;-81
2022/07/14 11:21:05;;;;;;;4.32;3.60;;;26.60;99.90;;;;;;5017292;28;20225;-81
2022/07/14 11:23:36;;;;;;;3.97;3.40;;;26.70;99.90;;;;;;5004200;28;20215;-81
2022/07/14 11:26:26;;;;;;;10.18;3.53;;;26.90;99.90;;;;;;5016833;28;20261;-82
2022/07/14 11:28:52;;;;;;;4.22;3.30;;;26.70;99.90;;;;;;5016766;28;20181;-81
2022/07/14 11:31:19;;;;;;;4.22;3.40;;;26.90;99.90;;;;;;5001796;28;20243;-81
2022/07/14 11:37:02;;;;;;;4.22;3.55;;;27.00;99.90;;;;;;5006498;28;20167;-82
2022/07/14 11:39:34;;;;;;;3.60;2.95;;;26.80;99.90;;;;;;5003919;28;20178;-81
2022/07/14 11:42:08;;;;;;;3.55;3.17;;;26.70;99.90;;;;;;5019857;28;20210;-81
2022/07/14 11:44:38;;;;;;;3.53;3.15;;;26.80;99.90;;;;;;5019437;28;20186;-81
2022/07/14 11:47:24;;;;;;;5.00;3.40;;;26.80;99.90;;;;;;5019478;28;20258;-81
2022/07/14 11:50:07;;;;;;;3.60;3.30;;;27.00;99.90;;;;;;5020936;28;20189;-81
2022/07/14 11:52:35;;;;;;;3.25;3.00;;;27.00;99.90;;;;;;5003589;28;20199;-81
2022/07/14 11:55:06;;;;;;;4.05;3.22;;;27.20;99.90;;;;;;5003496;28;20247;-81
2022/07/14 11:57:32;;;;;;;3.53;3.22;;;27.40;99.90;;;;;;4987347;28;20191;-81
2022/07/14 12:00:08;;;;;;;4.60;3.15;;;27.20;99.90;;;;;;4987468;28;20270;-81
2022/07/14 12:02:49;;;;;;;3.75;3.00;;;27.20;99.90;;;;;;5019270;28;20286;-81
2022/07/14 12:05:14;;;;;;;3.05;2.80;;;27.30;99.90;;;;;;5019367;28;20197;-81
2022/07/14 12:07:49;;;;;;;4.13;3.30;;;27.20;99.90;;;;;;4987620;28;20270;-81
2022/07/14 12:10:32;;;;;;;3.53;3.22;;;27.20;99.90;;;;;;5004142;28;20178;-82
2022/07/14 12:12:59;;;;;;;5.47;3.47;;;27.70;99.90;;;;;;5011345;28;20206;-81
2022/07/14 12:15:26;;;;;;;3.63;3.28;;;27.50;99.90;;;;;;5030753;28;20182;-81
2022/07/14 12:17:53;;;;;;;4.63;3.13;;;27.40;99.90;;;;;;5023934;28;20175;-82
2022/07/14 12:20:20;;;;;;;3.63;3.22;;;27.50;99.90;;;;;;4986076;28;20237;-81
2022/07/14 12:22:52;;;;;;;4.50;3.05;;;27.80;99.90;;;;;;4979681;28;20728;-82
2022/07/14 12:25:45;;;;;;;4.88;3.20;;;28.00;99.90;;;;;;4997725;28;20195;-82
2022/07/14 12:28:16;;;;;;;3.55;3.25;;;27.80;99.90;;;;;;4994482;28;20184;-82
2022/07/14 12:30:47;;;;;;;4.43;3.83;;;27.80;99.90;;;;;;5012183;28;20168;-82
2022/07/14 12:33:15;;;;;;;3.80;3.50;;;27.80;99.90;;;;;;4981639;28;20231;-81
2022/07/14 12:35:46;;;;;;;3.65;3.17;;;28.00;99.90;;;;;;4998109;28;20182;-82
2022/07/14 12:38:12;;;;;;;5.07;3.33;;;28.00;99.90;;;;;;4981464;28;20175;-82
2022/07/14 12:40:39;;;;;;;3.40;3.10;;;27.90;99.90;;;;;;4997995;28;20192;-81
2022/07/14 12:43:07;;;;;;;4.68;3.33;;;27.90;99.90;;;;;;4997662;28;20203;-81
2022/07/14 12:45:53;;;;;;;5.20;3.58;;;28.00;99.90;;;;;;4980871;28;20188;-81
2022/07/14 12:48:19;;;;;;;5.63;3.60;;;27.70;99.90;;;;;;4998347;28;20168;-81
2022/07/14 12:50:44;;;;;;;4.45;3.55;;;27.40;99.90;;;;;;4981506;28;20226;-81
2022/07/14 12:53:12;;;;;;;4.45;3.72;;;27.30;99.90;;;;;;4997483;28;20680;-82
2022/07/14 12:55:44;;;;;;;3.72;3.42;;;27.30;99.90;;;;;;4981969;28;20255;-82
2022/07/14 12:58:12;;;;;;;3.70;3.05;;;27.50;99.90;;;;;;4981903;28;20175;-82
2022/07/14 13:00:40;;;;;;;4.93;3.40;;;27.30;99.90;;;;;;4981142;28;20190;-81
2022/07/14 13:03:16;;;;;;;3.28;2.97;;;26.90;99.90;;;;;;4980967;28;20269;-82
2022/07/14 13:05:46;;;;;;;3.10;2.80;;;26.50;99.90;;;;;;4996831;28;20202;-82
2022/07/14 13:08:38;;;;;;;4.63;3.10;;;26.40;99.90;;;;;;4997337;28;20630;-81
2022/07/14 13:11:08;;;;;;;3.38;2.63;;;26.30;99.90;;;;;;4997184;28;20167;-81
2022/07/14 13:13:37;;;;;;;2.58;2.38;;;25.90;99.90;;;;;;4980341;28;20203;-81